sensor_id;sensor_type;location;lat;lon;timestamp;P1;durP1;ratioP1;P2;durP2;ratioP2
44658;SDS011;30378;50.186;8.644;2022-11-21T00:01:01;4.30;;;0.93;;
44658;SDS011;30378;50.186;8.644;2022-11-21T00:03:40;3.03;;;0.65;;
44658;SDS011;30378;50.186;8.644;2022-11-21T00:06:07;2.72;;;0.52;;
44658;SDS011;30378;50.186;8.644;2022-11-21T00:08:34;5.43;;;0.65;;
44658;SDS011;30378;50.186;8.644;2022-11-21T00:11:00;2.63;;;0.55;;
44658;SDS011;30378;50.186;8.644;2022-11-21T00:13:27;4.28;;;0.73;;
44658;SDS011;30378;50.186;8.644;2022-11-21T00:15:54;1.02;;;0.22;;
44658;SDS011;30378;50.186;8.644;2022-11-21T00:18:21;3.88;;;0.73;;
44658;SDS011;30378;50.186;8.644;2022-11-21T00:20:48;1.67;;;0.43;;
44658;SDS011;30378;50.186;8.644;2022-11-21T00:23:15;4.47;;;0.52;;
44658;SDS011;30378;50.186;8.644;2022-11-21T00:25:42;5.22;;;0.35;;
44658;SDS011;30378;50.186;8.644;2022-11-21T00:28:09;2.05;;;0.60;;
44658;SDS011;30378;50.186;8.644;2022-11-21T00:30:36;5.88;;;0.60;;
44658;SDS011;30378;50.186;8.644;2022-11-21T00:33:03;3.17;;;0.70;;
44658;SDS011;30378;50.186;8.644;2022-11-21T00:35:30;1.73;;;0.40;;
44658;SDS011;30378;50.186;8.644;2022-11-21T00:37:57;4.28;;;0.63;;
44658;SDS011;30378;50.186;8.644;2022-11-21T00:40:24;3.05;;;0.43;;
44658;SDS011;30378;50.186;8.644;2022-11-21T00:42:51;1.40;;;0.22;;
44658;SDS011;30378;50.186;8.644;2022-11-21T00:45:18;3.15;;;0.52;;
44658;SDS011;30378;50.186;8.644;2022-11-21T00:47:48;3.65;;;0.32;;
44658;SDS011;30378;50.186;8.644;2022-11-21T00:50:15;2.58;;;0.50;;
44658;SDS011;30378;50.186;8.644;2022-11-21T00:52:42;0.85;;;0.22;;
44658;SDS011;30378;50.186;8.644;2022-11-21T00:55:09;4.20;;;0.73;;
44658;SDS011;30378;50.186;8.644;2022-11-21T00:57:35;1.92;;;0.30;;
44658;SDS011;30378;50.186;8.644;2022-11-21T01:00:03;0.57;;;0.15;;
44658;SDS011;30378;50.186;8.644;2022-11-21T01:02:31;1.77;;;0.22;;
44658;SDS011;30378;50.186;8.644;2022-11-21T01:04:58;0.73;;;0.20;;
44658;SDS011;30378;50.186;8.644;2022-11-21T01:07:25;2.17;;;0.15;;
44658;SDS011;30378;50.186;8.644;2022-11-21T01:09:52;2.35;;;0.32;;
44658;SDS011;30378;50.186;8.644;2022-11-21T01:12:19;2.83;;;0.25;;
44658;SDS011;30378;50.186;8.644;2022-11-21T01:14:46;1.70;;;0.32;;
44658;SDS011;30378;50.186;8.644;2022-11-21T01:17:13;2.95;;;0.65;;
44658;SDS011;30378;50.186;8.644;2022-11-21T01:19:40;0.98;;;0.13;;
44658;SDS011;30378;50.186;8.644;2022-11-21T01:22:07;1.30;;;0.40;;
44658;SDS011;30378;50.186;8.644;2022-11-21T01:24:34;3.50;;;0.22;;
44658;SDS011;30378;50.186;8.644;2022-11-21T01:27:01;3.05;;;0.55;;
44658;SDS011;30378;50.186;8.644;2022-11-21T01:29:28;2.85;;;0.57;;
44658;SDS011;30378;50.186;8.644;2022-11-21T01:31:54;0.70;;;0.30;;
44658;SDS011;30378;50.186;8.644;2022-11-21T01:34:21;2.95;;;0.40;;
44658;SDS011;30378;50.186;8.644;2022-11-21T01:36:49;2.58;;;0.35;;
44658;SDS011;30378;50.186;8.644;2022-11-21T01:39:15;0.73;;;0.22;;
44658;SDS011;30378;50.186;8.644;2022-11-21T01:41:43;4.50;;;0.43;;
44658;SDS011;30378;50.186;8.644;2022-11-21T01:46:47;2.28;;;0.60;;
44658;SDS011;30378;50.186;8.644;2022-11-21T01:49:21;3.90;;;0.93;;
44658;SDS011;30378;50.186;8.644;2022-11-21T01:52:04;2.70;;;0.60;;
44658;SDS011;30378;50.186;8.644;2022-11-21T01:54:40;1.73;;;0.35;;
44658;SDS011;30378;50.186;8.644;2022-11-21T01:57:15;4.22;;;0.82;;
44658;SDS011;30378;50.186;8.644;2022-11-21T02:02:26;5.32;;;0.75;;
44658;SDS011;30378;50.186;8.644;2022-11-21T02:04:56;4.90;;;0.68;;
44658;SDS011;30378;50.186;8.644;2022-11-21T02:07:25;4.13;;;0.45;;
44658;SDS011;30378;50.186;8.644;2022-11-21T02:09:59;2.10;;;0.57;;
44658;SDS011;30378;50.186;8.644;2022-11-21T02:12:29;3.22;;;0.75;;
44658;SDS011;30378;50.186;8.644;2022-11-21T02:15:01;5.53;;;1.25;;
44658;SDS011;30378;50.186;8.644;2022-11-21T02:17:28;4.95;;;1.00;;
44658;SDS011;30378;50.186;8.644;2022-11-21T02:19:57;7.32;;;1.05;;
44658;SDS011;30378;50.186;8.644;2022-11-21T02:22:32;5.28;;;0.85;;
44658;SDS011;30378;50.186;8.644;2022-11-21T02:25:24;5.78;;;0.80;;
44658;SDS011;30378;50.186;8.644;2022-11-21T02:27:57;4.35;;;0.80;;
44658;SDS011;30378;50.186;8.644;2022-11-21T02:30:29;4.90;;;0.65;;
44658;SDS011;30378;50.186;8.644;2022-11-21T02:32:58;4.40;;;1.17;;
44658;SDS011;30378;50.186;8.644;2022-11-21T02:35:25;5.35;;;0.65;;
44658;SDS011;30378;50.186;8.644;2022-11-21T02:38:10;5.05;;;0.52;;
44658;SDS011;30378;50.186;8.644;2022-11-21T02:40:52;5.22;;;0.82;;
44658;SDS011;30378;50.186;8.644;2022-11-21T02:43:41;15.88;;;1.50;;
44658;SDS011;30378;50.186;8.644;2022-11-21T02:46:16;4.10;;;0.60;;
44658;SDS011;30378;50.186;8.644;2022-11-21T02:48:43;6.60;;;1.02;;
44658;SDS011;30378;50.186;8.644;2022-11-21T02:53:37;5.53;;;1.00;;
44658;SDS011;30378;50.186;8.644;2022-11-21T02:56:04;7.25;;;1.30;;
44658;SDS011;30378;50.186;8.644;2022-11-21T02:58:31;4.75;;;0.95;;
44658;SDS011;30378;50.186;8.644;2022-11-21T03:00:58;5.90;;;1.20;;
44658;SDS011;30378;50.186;8.644;2022-11-21T03:03:25;6.10;;;1.15;;
44658;SDS011;30378;50.186;8.644;2022-11-21T03:05:52;6.35;;;1.25;;
44658;SDS011;30378;50.186;8.644;2022-11-21T03:08:20;12.27;;;1.13;;
44658;SDS011;30378;50.186;8.644;2022-11-21T03:10:47;8.25;;;1.25;;
44658;SDS011;30378;50.186;8.644;2022-11-21T03:13:14;9.05;;;1.13;;
44658;SDS011;30378;50.186;8.644;2022-11-21T03:15:41;7.30;;;1.42;;
44658;SDS011;30378;50.186;8.644;2022-11-21T03:18:08;12.80;;;1.90;;
44658;SDS011;30378;50.186;8.644;2022-11-21T03:20:35;5.55;;;0.88;;
44658;SDS011;30378;50.186;8.644;2022-11-21T03:23:02;6.55;;;1.10;;
44658;SDS011;30378;50.186;8.644;2022-11-21T03:25:29;9.48;;;1.15;;
44658;SDS011;30378;50.186;8.644;2022-11-21T03:27:56;9.85;;;1.42;;
44658;SDS011;30378;50.186;8.644;2022-11-21T03:30:24;11.80;;;1.45;;
44658;SDS011;30378;50.186;8.644;2022-11-21T03:32:55;10.55;;;1.45;;
44658;SDS011;30378;50.186;8.644;2022-11-21T03:35:23;12.35;;;1.48;;
44658;SDS011;30378;50.186;8.644;2022-11-21T03:37:51;10.00;;;1.33;;
44658;SDS011;30378;50.186;8.644;2022-11-21T03:40:18;4.55;;;1.02;;
44658;SDS011;30378;50.186;8.644;2022-11-21T03:42:45;7.40;;;1.10;;
44658;SDS011;30378;50.186;8.644;2022-11-21T03:45:12;6.03;;;1.20;;
44658;SDS011;30378;50.186;8.644;2022-11-21T03:47:39;5.15;;;1.33;;
44658;SDS011;30378;50.186;8.644;2022-11-21T03:52:33;4.70;;;1.40;;
44658;SDS011;30378;50.186;8.644;2022-11-21T03:55:00;6.65;;;1.02;;
44658;SDS011;30378;50.186;8.644;2022-11-21T03:57:27;5.22;;;1.25;;
44658;SDS011;30378;50.186;8.644;2022-11-21T03:59:54;11.10;;;1.40;;
44658;SDS011;30378;50.186;8.644;2022-11-21T04:02:21;8.48;;;1.40;;
44658;SDS011;30378;50.186;8.644;2022-11-21T04:04:48;6.10;;;1.15;;
44658;SDS011;30378;50.186;8.644;2022-11-21T04:07:15;6.38;;;0.95;;
44658;SDS011;30378;50.186;8.644;2022-11-21T04:09:42;8.27;;;1.58;;
44658;SDS011;30378;50.186;8.644;2022-11-21T04:12:09;8.48;;;1.17;;
44658;SDS011;30378;50.186;8.644;2022-11-21T04:14:36;5.70;;;1.55;;
44658;SDS011;30378;50.186;8.644;2022-11-21T04:17:02;2.92;;;1.20;;
44658;SDS011;30378;50.186;8.644;2022-11-21T04:19:30;5.28;;;1.33;;
44658;SDS011;30378;50.186;8.644;2022-11-21T04:21:56;8.02;;;1.70;;
44658;SDS011;30378;50.186;8.644;2022-11-21T04:24:23;7.07;;;1.58;;
44658;SDS011;30378;50.186;8.644;2022-11-21T04:26:50;11.75;;;1.88;;
44658;SDS011;30378;50.186;8.644;2022-11-21T04:29:19;8.15;;;1.10;;
44658;SDS011;30378;50.186;8.644;2022-11-21T04:31:46;11.82;;;1.55;;
44658;SDS011;30378;50.186;8.644;2022-11-21T04:34:13;7.60;;;1.38;;
44658;SDS011;30378;50.186;8.644;2022-11-21T04:36:40;7.82;;;1.38;;
44658;SDS011;30378;50.186;8.644;2022-11-21T04:39:07;6.40;;;1.23;;
44658;SDS011;30378;50.186;8.644;2022-11-21T04:41:34;4.32;;;1.30;;
44658;SDS011;30378;50.186;8.644;2022-11-21T04:44:01;6.97;;;1.08;;
44658;SDS011;30378;50.186;8.644;2022-11-21T04:46:28;4.10;;;0.85;;
44658;SDS011;30378;50.186;8.644;2022-11-21T04:48:55;9.90;;;1.10;;
44658;SDS011;30378;50.186;8.644;2022-11-21T04:51:22;5.43;;;1.00;;
44658;SDS011;30378;50.186;8.644;2022-11-21T04:53:49;4.60;;;0.95;;
44658;SDS011;30378;50.186;8.644;2022-11-21T04:56:16;5.22;;;0.82;;
44658;SDS011;30378;50.186;8.644;2022-11-21T04:58:43;6.55;;;1.35;;
44658;SDS011;30378;50.186;8.644;2022-11-21T05:01:10;6.25;;;0.98;;
44658;SDS011;30378;50.186;8.644;2022-11-21T05:03:37;7.35;;;1.13;;
44658;SDS011;30378;50.186;8.644;2022-11-21T05:06:04;5.53;;;1.05;;
44658;SDS011;30378;50.186;8.644;2022-11-21T05:08:31;6.05;;;0.95;;
44658;SDS011;30378;50.186;8.644;2022-11-21T05:10:58;4.95;;;0.90;;
44658;SDS011;30378;50.186;8.644;2022-11-21T05:13:44;5.18;;;0.95;;
44658;SDS011;30378;50.186;8.644;2022-11-21T05:16:11;3.28;;;0.85;;
44658;SDS011;30378;50.186;8.644;2022-11-21T05:18:38;3.45;;;1.00;;
44658;SDS011;30378;50.186;8.644;2022-11-21T05:21:05;4.50;;;0.80;;
44658;SDS011;30378;50.186;8.644;2022-11-21T05:23:32;5.10;;;0.93;;
44658;SDS011;30378;50.186;8.644;2022-11-21T05:25:59;4.72;;;0.77;;
44658;SDS011;30378;50.186;8.644;2022-11-21T05:28:25;8.27;;;1.10;;
44658;SDS011;30378;50.186;8.644;2022-11-21T05:30:52;2.85;;;0.80;;
44658;SDS011;30378;50.186;8.644;2022-11-21T05:33:19;6.32;;;1.17;;
44658;SDS011;30378;50.186;8.644;2022-11-21T05:35:46;3.78;;;1.00;;
44658;SDS011;30378;50.186;8.644;2022-11-21T05:38:13;4.65;;;1.15;;
44658;SDS011;30378;50.186;8.644;2022-11-21T05:40:40;5.78;;;1.08;;
44658;SDS011;30378;50.186;8.644;2022-11-21T05:43:08;5.93;;;1.15;;
44658;SDS011;30378;50.186;8.644;2022-11-21T05:45:55;5.50;;;0.90;;
44658;SDS011;30378;50.186;8.644;2022-11-21T05:48:22;4.95;;;0.82;;
44658;SDS011;30378;50.186;8.644;2022-11-21T05:50:49;3.63;;;0.88;;
44658;SDS011;30378;50.186;8.644;2022-11-21T05:53:16;6.70;;;1.25;;
44658;SDS011;30378;50.186;8.644;2022-11-21T05:55:43;2.05;;;0.93;;
44658;SDS011;30378;50.186;8.644;2022-11-21T05:58:10;5.63;;;0.93;;
44658;SDS011;30378;50.186;8.644;2022-11-21T06:03:05;4.63;;;0.85;;
44658;SDS011;30378;50.186;8.644;2022-11-21T06:05:51;7.63;;;1.10;;
44658;SDS011;30378;50.186;8.644;2022-11-21T06:08:25;5.70;;;1.40;;
44658;SDS011;30378;50.186;8.644;2022-11-21T06:10:53;6.28;;;1.33;;
44658;SDS011;30378;50.186;8.644;2022-11-21T06:13:20;10.48;;;1.40;;
44658;SDS011;30378;50.186;8.644;2022-11-21T06:15:48;5.13;;;1.00;;
44658;SDS011;30378;50.186;8.644;2022-11-21T06:18:15;5.10;;;1.15;;
44658;SDS011;30378;50.186;8.644;2022-11-21T06:20:42;4.00;;;1.02;;
44658;SDS011;30378;50.186;8.644;2022-11-21T06:23:09;5.53;;;0.80;;
44658;SDS011;30378;50.186;8.644;2022-11-21T06:25:37;4.78;;;1.02;;
44658;SDS011;30378;50.186;8.644;2022-11-21T06:28:04;5.85;;;1.13;;
44658;SDS011;30378;50.186;8.644;2022-11-21T06:30:31;5.50;;;0.95;;
44658;SDS011;30378;50.186;8.644;2022-11-21T06:32:59;7.80;;;1.58;;
44658;SDS011;30378;50.186;8.644;2022-11-21T06:35:25;8.90;;;1.50;;
44658;SDS011;30378;50.186;8.644;2022-11-21T06:37:54;3.63;;;1.15;;
44658;SDS011;30378;50.186;8.644;2022-11-21T06:40:22;5.80;;;1.40;;
44658;SDS011;30378;50.186;8.644;2022-11-21T06:42:50;4.95;;;1.38;;
44658;SDS011;30378;50.186;8.644;2022-11-21T06:45:16;5.28;;;1.20;;
44658;SDS011;30378;50.186;8.644;2022-11-21T06:47:43;4.20;;;1.45;;
44658;SDS011;30378;50.186;8.644;2022-11-21T06:50:10;7.60;;;1.40;;
44658;SDS011;30378;50.186;8.644;2022-11-21T06:52:37;7.05;;;1.40;;
44658;SDS011;30378;50.186;8.644;2022-11-21T06:55:04;4.15;;;1.30;;
44658;SDS011;30378;50.186;8.644;2022-11-21T06:57:31;5.68;;;1.40;;
44658;SDS011;30378;50.186;8.644;2022-11-21T06:59:58;3.97;;;1.52;;
44658;SDS011;30378;50.186;8.644;2022-11-21T07:02:25;7.53;;;2.00;;
44658;SDS011;30378;50.186;8.644;2022-11-21T07:04:52;9.27;;;1.58;;
44658;SDS011;30378;50.186;8.644;2022-11-21T07:07:19;5.95;;;1.70;;
44658;SDS011;30378;50.186;8.644;2022-11-21T07:09:46;7.53;;;1.50;;
44658;SDS011;30378;50.186;8.644;2022-11-21T07:12:13;7.68;;;2.08;;
44658;SDS011;30378;50.186;8.644;2022-11-21T07:14:58;4.57;;;1.45;;
44658;SDS011;30378;50.186;8.644;2022-11-21T07:17:25;5.68;;;1.27;;
44658;SDS011;30378;50.186;8.644;2022-11-21T07:19:52;4.88;;;1.50;;
44658;SDS011;30378;50.186;8.644;2022-11-21T07:22:19;6.45;;;2.03;;
44658;SDS011;30378;50.186;8.644;2022-11-21T07:24:46;7.82;;;1.55;;
44658;SDS011;30378;50.186;8.644;2022-11-21T07:27:13;3.80;;;1.52;;
44658;SDS011;30378;50.186;8.644;2022-11-21T07:29:40;6.03;;;1.83;;
44658;SDS011;30378;50.186;8.644;2022-11-21T07:32:07;8.60;;;1.90;;
44658;SDS011;30378;50.186;8.644;2022-11-21T07:34:34;6.05;;;1.48;;
44658;SDS011;30378;50.186;8.644;2022-11-21T07:37:00;3.40;;;1.23;;
44658;SDS011;30378;50.186;8.644;2022-11-21T07:39:30;5.57;;;1.90;;
44658;SDS011;30378;50.186;8.644;2022-11-21T07:41:57;8.82;;;2.25;;
44658;SDS011;30378;50.186;8.644;2022-11-21T07:44:24;8.48;;;1.58;;
44658;SDS011;30378;50.186;8.644;2022-11-21T07:46:54;8.32;;;1.63;;
44658;SDS011;30378;50.186;8.644;2022-11-21T07:49:21;7.68;;;2.08;;
44658;SDS011;30378;50.186;8.644;2022-11-21T07:51:48;10.52;;;2.22;;
44658;SDS011;30378;50.186;8.644;2022-11-21T07:54:16;6.30;;;1.45;;
44658;SDS011;30378;50.186;8.644;2022-11-21T07:56:43;8.52;;;1.70;;
44658;SDS011;30378;50.186;8.644;2022-11-21T07:59:10;7.68;;;1.58;;
44658;SDS011;30378;50.186;8.644;2022-11-21T08:01:37;7.35;;;1.90;;
44658;SDS011;30378;50.186;8.644;2022-11-21T08:04:06;6.30;;;1.85;;
44658;SDS011;30378;50.186;8.644;2022-11-21T08:06:33;4.97;;;1.92;;
44658;SDS011;30378;50.186;8.644;2022-11-21T08:09:00;4.22;;;1.42;;
44658;SDS011;30378;50.186;8.644;2022-11-21T08:11:27;7.25;;;2.13;;
44658;SDS011;30378;50.186;8.644;2022-11-21T08:13:54;7.05;;;1.80;;
44658;SDS011;30378;50.186;8.644;2022-11-21T08:16:21;5.82;;;1.73;;
44658;SDS011;30378;50.186;8.644;2022-11-21T08:18:50;4.70;;;1.90;;
44658;SDS011;30378;50.186;8.644;2022-11-21T08:21:16;7.32;;;1.95;;
44658;SDS011;30378;50.186;8.644;2022-11-21T08:23:45;7.78;;;1.63;;
44658;SDS011;30378;50.186;8.644;2022-11-21T08:26:11;4.72;;;1.75;;
44658;SDS011;30378;50.186;8.644;2022-11-21T08:28:38;6.53;;;1.80;;
44658;SDS011;30378;50.186;8.644;2022-11-21T08:31:05;7.10;;;2.20;;
44658;SDS011;30378;50.186;8.644;2022-11-21T08:33:33;8.43;;;1.67;;
44658;SDS011;30378;50.186;8.644;2022-11-21T08:36:06;6.45;;;2.25;;
44658;SDS011;30378;50.186;8.644;2022-11-21T08:38:33;5.43;;;1.63;;
44658;SDS011;30378;50.186;8.644;2022-11-21T08:41:00;4.38;;;1.67;;
44658;SDS011;30378;50.186;8.644;2022-11-21T08:43:45;6.65;;;1.92;;
44658;SDS011;30378;50.186;8.644;2022-11-21T08:46:12;3.97;;;1.63;;
44658;SDS011;30378;50.186;8.644;2022-11-21T08:48:39;5.43;;;1.95;;
44658;SDS011;30378;50.186;8.644;2022-11-21T08:51:06;3.75;;;1.33;;
44658;SDS011;30378;50.186;8.644;2022-11-21T08:53:33;4.95;;;1.60;;
44658;SDS011;30378;50.186;8.644;2022-11-21T08:56:00;6.43;;;1.63;;
44658;SDS011;30378;50.186;8.644;2022-11-21T08:58:29;7.03;;;2.78;;
44658;SDS011;30378;50.186;8.644;2022-11-21T09:00:57;9.48;;;1.70;;
44658;SDS011;30378;50.186;8.644;2022-11-21T09:03:25;7.20;;;2.00;;
44658;SDS011;30378;50.186;8.644;2022-11-21T09:05:55;7.03;;;2.00;;
44658;SDS011;30378;50.186;8.644;2022-11-21T09:08:23;2.60;;;0.93;;
44658;SDS011;30378;50.186;8.644;2022-11-21T09:10:50;3.40;;;1.35;;
44658;SDS011;30378;50.186;8.644;2022-11-21T09:13:17;3.50;;;1.23;;
44658;SDS011;30378;50.186;8.644;2022-11-21T09:15:44;2.67;;;1.33;;
44658;SDS011;30378;50.186;8.644;2022-11-21T09:18:30;3.58;;;1.13;;
44658;SDS011;30378;50.186;8.644;2022-11-21T09:20:57;3.60;;;0.95;;
44658;SDS011;30378;50.186;8.644;2022-11-21T09:23:24;3.53;;;0.88;;
44658;SDS011;30378;50.186;8.644;2022-11-21T09:25:51;3.78;;;1.02;;
44658;SDS011;30378;50.186;8.644;2022-11-21T09:28:18;3.00;;;0.75;;
44658;SDS011;30378;50.186;8.644;2022-11-21T09:30:45;4.72;;;1.05;;
44658;SDS011;30378;50.186;8.644;2022-11-21T09:33:13;2.60;;;1.02;;
44658;SDS011;30378;50.186;8.644;2022-11-21T09:35:42;3.67;;;1.40;;
44658;SDS011;30378;50.186;8.644;2022-11-21T09:38:09;3.45;;;1.20;;
44658;SDS011;30378;50.186;8.644;2022-11-21T09:40:38;3.13;;;1.38;;
44658;SDS011;30378;50.186;8.644;2022-11-21T09:45:43;5.10;;;1.05;;
44658;SDS011;30378;50.186;8.644;2022-11-21T09:48:12;5.93;;;0.98;;
44658;SDS011;30378;50.186;8.644;2022-11-21T09:50:44;3.97;;;0.70;;
44658;SDS011;30378;50.186;8.644;2022-11-21T09:53:25;5.30;;;0.90;;
44658;SDS011;30378;50.186;8.644;2022-11-21T09:55:57;11.10;;;1.33;;
44658;SDS011;30378;50.186;8.644;2022-11-21T09:58:41;3.25;;;0.70;;
44658;SDS011;30378;50.186;8.644;2022-11-21T10:01:12;3.03;;;0.70;;
44658;SDS011;30378;50.186;8.644;2022-11-21T10:03:49;2.17;;;0.55;;
44658;SDS011;30378;50.186;8.644;2022-11-21T10:06:21;3.53;;;0.73;;
44658;SDS011;30378;50.186;8.644;2022-11-21T10:14:53;5.93;;;0.95;;
44658;SDS011;30378;50.186;8.644;2022-11-21T10:23:28;5.78;;;1.35;;
44658;SDS011;30378;50.186;8.644;2022-11-21T10:26:08;4.47;;;0.70;;
44658;SDS011;30378;50.186;8.644;2022-11-21T10:31:23;2.92;;;0.82;;
44658;SDS011;30378;50.186;8.644;2022-11-21T10:33:56;3.83;;;0.70;;
44658;SDS011;30378;50.186;8.644;2022-11-21T10:36:34;3.53;;;0.73;;
44658;SDS011;30378;50.186;8.644;2022-11-21T10:39:10;3.25;;;0.43;;
44658;SDS011;30378;50.186;8.644;2022-11-21T10:47:18;3.88;;;0.88;;
44658;SDS011;30378;50.186;8.644;2022-11-21T10:49:57;4.07;;;0.82;;
44658;SDS011;30378;50.186;8.644;2022-11-21T10:52:25;1.65;;;0.80;;
44658;SDS011;30378;50.186;8.644;2022-11-21T11:02:37;1.98;;;0.60;;
44658;SDS011;30378;50.186;8.644;2022-11-21T11:13:18;3.50;;;0.40;;
44658;SDS011;30378;50.186;8.644;2022-11-21T11:16:15;2.03;;;0.57;;
44658;SDS011;30378;50.186;8.644;2022-11-21T11:18:52;1.80;;;0.52;;
44658;SDS011;30378;50.186;8.644;2022-11-21T11:21:48;2.28;;;0.32;;
44658;SDS011;30378;50.186;8.644;2022-11-21T11:29:23;2.45;;;0.45;;
44658;SDS011;30378;50.186;8.644;2022-11-21T11:34:26;3.10;;;0.50;;
44658;SDS011;30378;50.186;8.644;2022-11-21T11:37:12;3.42;;;0.43;;
44658;SDS011;30378;50.186;8.644;2022-11-21T11:39:54;2.67;;;0.60;;
44658;SDS011;30378;50.186;8.644;2022-11-21T11:42:38;3.15;;;0.63;;
44658;SDS011;30378;50.186;8.644;2022-11-21T11:46:04;2.17;;;0.50;;
44658;SDS011;30378;50.186;8.644;2022-11-21T11:49:25;2.55;;;0.52;;
44658;SDS011;30378;50.186;8.644;2022-11-21T11:51:55;2.78;;;0.50;;
44658;SDS011;30378;50.186;8.644;2022-11-21T11:54:38;2.75;;;0.80;;
44658;SDS011;30378;50.186;8.644;2022-11-21T11:57:13;2.55;;;0.60;;
44658;SDS011;30378;50.186;8.644;2022-11-21T11:59:41;5.30;;;0.60;;
44658;SDS011;30378;50.186;8.644;2022-11-21T12:02:22;2.58;;;0.85;;
44658;SDS011;30378;50.186;8.644;2022-11-21T12:05:12;4.65;;;0.50;;
44658;SDS011;30378;50.186;8.644;2022-11-21T12:08:09;4.28;;;0.55;;
44658;SDS011;30378;50.186;8.644;2022-11-21T12:11:14;3.60;;;0.65;;
44658;SDS011;30378;50.186;8.644;2022-11-21T12:14:19;3.05;;;0.63;;
44658;SDS011;30378;50.186;8.644;2022-11-21T12:17:18;2.67;;;0.80;;
44658;SDS011;30378;50.186;8.644;2022-11-21T12:19:53;2.33;;;0.75;;
44658;SDS011;30378;50.186;8.644;2022-11-21T12:22:20;2.38;;;0.55;;
44658;SDS011;30378;50.186;8.644;2022-11-21T12:24:47;1.33;;;0.43;;
44658;SDS011;30378;50.186;8.644;2022-11-21T12:27:27;2.65;;;0.60;;
44658;SDS011;30378;50.186;8.644;2022-11-21T12:32:55;2.47;;;0.73;;
44658;SDS011;30378;50.186;8.644;2022-11-21T12:36:15;2.05;;;0.35;;
44658;SDS011;30378;50.186;8.644;2022-11-21T12:38:48;3.33;;;0.60;;
44658;SDS011;30378;50.186;8.644;2022-11-21T12:41:31;3.63;;;0.30;;
44658;SDS011;30378;50.186;8.644;2022-11-21T12:50:52;3.30;;;0.47;;
44658;SDS011;30378;50.186;8.644;2022-11-21T12:56:56;1.55;;;0.43;;
44658;SDS011;30378;50.186;8.644;2022-11-21T13:02:42;3.58;;;0.43;;
44658;SDS011;30378;50.186;8.644;2022-11-21T13:05:29;2.00;;;0.35;;
44658;SDS011;30378;50.186;8.644;2022-11-21T13:08:12;1.20;;;0.32;;
44658;SDS011;30378;50.186;8.644;2022-11-21T13:10:51;2.08;;;0.63;;
44658;SDS011;30378;50.186;8.644;2022-11-21T13:13:44;2.95;;;0.70;;
44658;SDS011;30378;50.186;8.644;2022-11-21T13:16:20;2.90;;;0.57;;
44658;SDS011;30378;50.186;8.644;2022-11-21T13:19:19;1.50;;;0.32;;
44658;SDS011;30378;50.186;8.644;2022-11-21T13:21:50;2.25;;;0.40;;
44658;SDS011;30378;50.186;8.644;2022-11-21T13:30:34;2.90;;;0.73;;
44658;SDS011;30378;50.186;8.644;2022-11-21T13:32:41;1.80;;;0.63;;
44658;SDS011;30378;50.186;8.644;2022-11-21T13:37:57;2.30;;;0.32;;
44658;SDS011;30378;50.186;8.644;2022-11-21T13:45:55;3.53;;;0.80;;
44658;SDS011;30378;50.186;8.644;2022-11-21T13:56:55;3.63;;;0.77;;
44658;SDS011;30378;50.186;8.644;2022-11-21T13:59:27;5.43;;;0.70;;
44658;SDS011;30378;50.186;8.644;2022-11-21T14:09:51;2.33;;;0.70;;
44658;SDS011;30378;50.186;8.644;2022-11-21T14:12:44;3.72;;;0.63;;
44658;SDS011;30378;50.186;8.644;2022-11-21T14:20:17;8.07;;;1.05;;
44658;SDS011;30378;50.186;8.644;2022-11-21T14:25:45;2.40;;;0.50;;
44658;SDS011;30378;50.186;8.644;2022-11-21T14:28:19;3.60;;;0.55;;
44658;SDS011;30378;50.186;8.644;2022-11-21T14:31:05;3.85;;;0.45;;
44658;SDS011;30378;50.186;8.644;2022-11-21T14:33:34;4.40;;;0.50;;
44658;SDS011;30378;50.186;8.644;2022-11-21T14:36:04;4.10;;;0.60;;
44658;SDS011;30378;50.186;8.644;2022-11-21T14:38:41;3.80;;;0.47;;
44658;SDS011;30378;50.186;8.644;2022-11-21T14:46:25;2.40;;;0.57;;
44658;SDS011;30378;50.186;8.644;2022-11-21T14:51:52;7.10;;;0.82;;
44658;SDS011;30378;50.186;8.644;2022-11-21T14:54:26;3.83;;;0.70;;
44658;SDS011;30378;50.186;8.644;2022-11-21T14:56:58;8.18;;;1.30;;
44658;SDS011;30378;50.186;8.644;2022-11-21T14:59:40;3.33;;;0.57;;
44658;SDS011;30378;50.186;8.644;2022-11-21T15:02:12;4.72;;;0.82;;
44658;SDS011;30378;50.186;8.644;2022-11-21T15:04:45;5.40;;;0.73;;
44658;SDS011;30378;50.186;8.644;2022-11-21T15:09:54;5.90;;;0.82;;
44658;SDS011;30378;50.186;8.644;2022-11-21T15:15:27;3.50;;;1.02;;
44658;SDS011;30378;50.186;8.644;2022-11-21T15:17:56;5.13;;;0.57;;
44658;SDS011;30378;50.186;8.644;2022-11-21T15:20:48;5.65;;;0.55;;
44658;SDS011;30378;50.186;8.644;2022-11-21T15:23:31;2.53;;;0.65;;
44658;SDS011;30378;50.186;8.644;2022-11-21T15:26:01;5.47;;;1.15;;
44658;SDS011;30378;50.186;8.644;2022-11-21T15:28:28;4.03;;;0.57;;
44658;SDS011;30378;50.186;8.644;2022-11-21T15:36:32;5.38;;;0.63;;
44658;SDS011;30378;50.186;8.644;2022-11-21T15:41:27;4.05;;;0.63;;
44658;SDS011;30378;50.186;8.644;2022-11-21T15:46:30;3.67;;;0.75;;
44658;SDS011;30378;50.186;8.644;2022-11-21T15:48:59;7.20;;;0.80;;
44658;SDS011;30378;50.186;8.644;2022-11-21T15:54:25;3.25;;;0.80;;
44658;SDS011;30378;50.186;8.644;2022-11-21T15:56:52;3.22;;;0.70;;
44658;SDS011;30378;50.186;8.644;2022-11-21T15:59:19;2.70;;;0.90;;
44658;SDS011;30378;50.186;8.644;2022-11-21T16:01:46;2.92;;;0.80;;
44658;SDS011;30378;50.186;8.644;2022-11-21T16:04:16;9.40;;;1.38;;
44658;SDS011;30378;50.186;8.644;2022-11-21T16:06:46;3.78;;;1.10;;
44658;SDS011;30378;50.186;8.644;2022-11-21T16:09:13;2.40;;;1.00;;
44658;SDS011;30378;50.186;8.644;2022-11-21T16:11:40;3.53;;;0.93;;
44658;SDS011;30378;50.186;8.644;2022-11-21T16:14:11;2.35;;;0.80;;
44658;SDS011;30378;50.186;8.644;2022-11-21T16:16:40;3.08;;;1.00;;
44658;SDS011;30378;50.186;8.644;2022-11-21T16:19:09;5.97;;;1.52;;
44658;SDS011;30378;50.186;8.644;2022-11-21T16:24:49;3.67;;;1.38;;
44658;SDS011;30378;50.186;8.644;2022-11-21T16:27:16;8.60;;;1.63;;
44658;SDS011;30378;50.186;8.644;2022-11-21T16:29:43;6.10;;;1.27;;
44658;SDS011;30378;50.186;8.644;2022-11-21T16:32:10;4.70;;;1.05;;
44658;SDS011;30378;50.186;8.644;2022-11-21T16:34:37;3.85;;;1.45;;
44658;SDS011;30378;50.186;8.644;2022-11-21T16:37:04;4.30;;;0.88;;
44658;SDS011;30378;50.186;8.644;2022-11-21T16:39:32;6.88;;;1.48;;
44658;SDS011;30378;50.186;8.644;2022-11-21T16:42:00;3.10;;;1.05;;
44658;SDS011;30378;50.186;8.644;2022-11-21T16:44:28;4.63;;;1.30;;
44658;SDS011;30378;50.186;8.644;2022-11-21T16:46:56;3.67;;;1.35;;
44658;SDS011;30378;50.186;8.644;2022-11-21T16:49:23;5.57;;;1.33;;
44658;SDS011;30378;50.186;8.644;2022-11-21T16:51:50;4.28;;;1.13;;
44658;SDS011;30378;50.186;8.644;2022-11-21T16:54:17;4.57;;;1.38;;
44658;SDS011;30378;50.186;8.644;2022-11-21T16:56:44;5.88;;;1.35;;
44658;SDS011;30378;50.186;8.644;2022-11-21T16:59:12;6.53;;;1.58;;
44658;SDS011;30378;50.186;8.644;2022-11-21T17:01:39;5.40;;;1.67;;
44658;SDS011;30378;50.186;8.644;2022-11-21T17:04:06;5.95;;;1.80;;
44658;SDS011;30378;50.186;8.644;2022-11-21T17:06:34;4.30;;;1.45;;
44658;SDS011;30378;50.186;8.644;2022-11-21T17:11:29;11.85;;;2.22;;
44658;SDS011;30378;50.186;8.644;2022-11-21T17:13:58;5.32;;;1.50;;
44658;SDS011;30378;50.186;8.644;2022-11-21T17:16:30;6.78;;;2.13;;
44658;SDS011;30378;50.186;8.644;2022-11-21T17:18:59;5.45;;;1.75;;
44658;SDS011;30378;50.186;8.644;2022-11-21T17:21:27;7.70;;;1.80;;
44658;SDS011;30378;50.186;8.644;2022-11-21T17:23:54;7.15;;;1.83;;
44658;SDS011;30378;50.186;8.644;2022-11-21T17:26:23;4.45;;;2.00;;
44658;SDS011;30378;50.186;8.644;2022-11-21T17:28:56;4.35;;;1.65;;
44658;SDS011;30378;50.186;8.644;2022-11-21T17:31:28;4.70;;;1.85;;
44658;SDS011;30378;50.186;8.644;2022-11-21T17:33:56;4.32;;;1.88;;
44658;SDS011;30378;50.186;8.644;2022-11-21T17:36:24;7.00;;;2.33;;